Time;durP1;ratioP1;P1;durP2;ratioP2;P2;SDS_P1;SDS_P2;PMS_P1;PMS_P2;Temp;Humidity;BMP_temperature;BMP_pressure;BME280_temperature;BME280_humidity;BME280_pressure;Samples;Min_cycle;Max_cycle;Signal;HPM_P1;HPM_P2
2023/01/06 00:01:53;;;;;;;5.15;2.60;;;;;;;11.62;48.18;99409.31;4878039;29;20075;-92
2023/01/06 00:04:18;;;;;;;5.00;2.30;;;;;;;11.65;47.87;99406.88;4872681;29;20035;-92
2023/01/06 00:06:44;;;;;;;4.38;2.30;;;;;;;11.68;47.72;99409.06;4870050;29;20487;-92
2023/01/06 00:09:09;;;;;;;3.30;1.80;;;;;;;11.72;47.65;99409.28;4869795;29;20028;-92
2023/01/06 00:11:35;;;;;;;5.90;1.92;;;;;;;11.75;47.49;99421.44;4854413;29;20025;-92
2023/01/06 00:14:00;;;;;;;3.20;2.13;;;;;;;11.69;47.45;99437.63;4859564;29;20040;-93
2023/01/06 00:16:26;;;;;;;4.32;2.20;;;;;;;11.83;47.36;99445.13;4869143;29;20039;-94
2023/01/06 00:18:56;;;;;;;3.85;2.08;;;;;;;11.81;47.32;99445.44;4874760;29;20060;-93
2023/01/06 00:21:21;;;;;;;3.03;1.92;;;;;;;11.80;47.30;99448.38;4888232;29;20040;-92
2023/01/06 00:23:47;;;;;;;4.63;1.80;;;;;;;11.75;47.23;99456.50;4884233;29;20104;-93
2023/01/06 00:26:12;;;;;;;3.45;2.00;;;;;;;11.80;47.62;99456.47;4884908;29;20066;-92
2023/01/06 00:28:38;;;;;;;3.88;1.75;;;;;;;11.75;47.38;99456.50;4869474;29;20044;-91
2023/01/06 00:31:14;;;;;;;2.70;1.90;;;;;;;11.85;47.11;99467.25;4884806;29;20036;-93
2023/01/06 00:33:40;;;;;;;3.85;2.05;;;;;;;11.81;47.30;99453.53;4886143;29;20033;-92
2023/01/06 00:36:06;;;;;;;2.55;1.63;;;;;;;11.86;47.44;99466.19;4872517;29;20042;-92
2023/01/06 00:38:35;;;;;;;3.72;2.20;;;;;;;11.82;47.57;99470.50;4888254;29;20028;-93
2023/01/06 00:42:02;;;;;;;3.63;2.15;;;;;;;11.84;47.21;99465.66;4871694;29;20529;-93
2023/01/06 00:43:51;;;;;;;3.10;2.03;;;;;;;11.82;47.53;99473.19;4887207;29;20037;-92
2023/01/06 00:46:16;;;;;;;4.45;2.25;;;;;;;11.78;47.27;99469.44;4856399;29;20040;-91
2023/01/06 00:48:42;;;;;;;4.03;1.92;;;;;;;11.84;47.30;99484.53;4872074;29;20036;-93
2023/01/06 00:51:07;;;;;;;2.85;1.73;;;;;;;11.89;47.59;99482.66;4871611;29;20403;-92
2023/01/06 00:53:33;;;;;;;3.72;1.90;;;;;;;11.80;47.20;99473.47;4871924;29;20464;-93
2023/01/06 00:56:00;;;;;;;2.97;1.88;;;;;;;11.83;47.42;99491.00;4870181;29;20095;-92
2023/01/06 00:58:29;;;;;;;5.82;2.00;;;;;;;11.76;47.67;99485.88;4869465;29;20036;-92
2023/01/06 01:00:54;;;;;;;2.65;1.80;;;;;;;11.65;47.79;99478.91;4853014;29;20043;-92
2023/01/06 01:03:20;;;;;;;3.30;2.05;;;;;;;11.60;48.39;99487.81;4868933;29;20496;-92
2023/01/06 01:05:46;;;;;;;3.08;2.05;;;;;;;11.55;48.61;99489.72;4900799;29;20020;-92
2023/01/06 01:08:11;;;;;;;4.07;1.80;;;;;;;11.47;49.03;99497.25;4853830;29;20423;-93
2023/01/06 01:10:37;;;;;;;3.13;1.88;;;;;;;11.48;48.90;99501.59;4868631;29;20038;-92
2023/01/06 01:13:03;;;;;;;4.18;2.05;;;;;;;11.40;49.11;99504.81;4869043;29;20392;-92
2023/01/06 01:15:28;;;;;;;3.33;2.15;;;;;;;11.35;49.48;99510.22;4861116;29;20405;-93
2023/01/06 01:17:53;;;;;;;4.00;2.30;;;;;;;11.22;49.46;99483.81;4865746;29;20557;-92
2023/01/06 01:20:19;;;;;;;3.42;1.98;;;;;;;11.10;49.99;99481.38;4869087;29;20033;-92
2023/01/06 01:22:45;;;;;;;3.80;2.30;;;;;;;11.10;50.20;99503.75;4852622;29;20028;-90
2023/01/06 01:25:10;;;;;;;3.30;2.00;;;;;;;10.92;50.22;99505.06;4841494;29;20060;-92
2023/01/06 01:27:36;;;;;;;3.60;1.83;;;;;;;10.92;50.82;99515.84;4834349;29;20033;-92
2023/01/06 01:30:01;;;;;;;3.00;1.95;;;;;;;10.96;50.36;99526.91;4845029;29;20028;-92
2023/01/06 01:32:30;;;;;;;4.05;2.30;;;;;;;10.91;50.73;99521.50;4856191;29;20025;-92
2023/01/06 01:34:55;;;;;;;3.67;1.85;;;;;;;10.78;50.71;99513.94;4834983;29;20124;-92
2023/01/06 01:37:21;;;;;;;3.67;2.13;;;;;;;10.81;51.10;99537.63;4850046;29;20029;-93
2023/01/06 01:39:48;;;;;;;3.58;2.13;;;;;;;10.81;51.38;99534.94;4834760;29;20097;-92
2023/01/06 01:42:18;;;;;;;3.10;1.88;;;;;;;10.82;51.26;99550.84;4834589;29;20126;-92
2023/01/06 01:44:57;;;;;;;3.47;2.17;;;;;;;10.62;51.33;99507.69;4856549;29;20578;-92
2023/01/06 01:47:22;;;;;;;3.63;2.08;;;;;;;10.77;51.73;99545.47;4872564;29;20029;-92
2023/01/06 01:49:50;;;;;;;2.92;2.20;;;;;;;10.68;51.67;99533.56;4865316;29;20032;-92
2023/01/06 01:52:15;;;;;;;4.47;2.20;;;;;;;10.72;51.86;99535.47;4849716;29;20025;-92
2023/01/06 01:54:41;;;;;;;4.43;1.90;;;;;;;10.69;52.21;99544.09;4834012;29;20021;-92
2023/01/06 01:57:19;;;;;;;5.03;2.28;;;;;;;10.60;52.08;99544.84;4833903;29;20381;-92
2023/01/06 01:59:45;;;;;;;3.25;2.10;;;;;;;10.54;52.41;99538.63;4849617;29;20416;-91
2023/01/06 02:02:12;;;;;;;4.78;2.20;;;;;;;10.35;52.55;99516.75;4848956;29;20025;-92
2023/01/06 02:04:40;;;;;;;4.18;1.90;;;;;;;10.51;52.56;99531.09;4839090;29;20035;-93
2023/01/06 02:07:05;;;;;;;4.25;2.58;;;;;;;10.43;52.62;99534.28;4867237;29;20094;-92
2023/01/06 02:09:38;;;;;;;6.50;2.85;;;;;;;10.39;52.83;99541.28;4851310;29;20032;-92
2023/01/06 02:12:04;;;;;;;6.93;2.97;;;;;;;10.44;52.79;99552.06;4868328;29;20527;-92
2023/01/06 02:14:30;;;;;;;7.35;2.75;;;;;;;10.34;52.91;99552.84;4863655;29;20037;-89
2023/01/06 02:17:10;;;;;;;5.80;2.67;;;;;;;10.28;53.26;99545.78;4841546;29;20131;-93
2023/01/06 02:20:13;;;;;;;7.28;2.70;;;;;;;10.39;53.29;99569.00;4883457;29;20039;-93
2023/01/06 02:22:57;;;;;;;4.22;2.40;;;;;;;10.39;53.20;99562.81;4869071;29;20572;-92
2023/01/06 02:25:41;;;;;;;5.35;2.60;;;;;;;10.35;53.22;99545.56;4873903;29;20059;-92
2023/01/06 02:28:42;;;;;;;4.38;2.30;;;;;;;10.34;53.32;99560.09;4865100;29;20029;-92
2023/01/06 02:31:39;;;;;;;5.55;2.85;;;;;;;10.18;53.69;99557.28;4879718;29;20027;-92
2023/01/06 02:34:21;;;;;;;4.45;2.42;;;;;;;10.22;53.64;99560.28;4870019;29;20037;-92
2023/01/06 02:37:05;;;;;;;;;;;;;;;10.18;53.93;99572.63;4860830;29;20408;-92
2023/01/06 02:39:37;;;;;;;3.88;2.22;;;;;;;10.08;54.30;99568.00;4866681;29;19936;-92
2023/01/06 02:42:27;;;;;;;2.53;1.80;;;;;;;10.11;53.86;99560.22;4873157;29;20053;-93
2023/01/06 02:45:11;;;;;;;3.20;2.15;;;;;;;10.09;53.97;99559.66;4863638;29;20044;-92
2023/01/06 02:48:06;;;;;;;2.88;1.90;;;;;;;10.14;54.05;99566.94;4876936;29;20029;-92
2023/01/06 02:50:35;;;;;;;3.88;1.98;;;;;;;9.96;53.83;99549.38;4866638;29;20488;-91
2023/01/06 02:53:23;;;;;;;4.75;2.28;;;;;;;10.03;54.32;99558.03;4882652;29;20025;-92
2023/01/06 02:55:50;;;;;;;3.03;1.70;;;;;;;10.00;54.00;99563.94;4867855;29;20040;-92
2023/01/06 02:58:34;;;;;;;5.28;2.15;;;;;;;10.08;53.94;99576.88;4852047;29;20040;-93
2023/01/06 03:01:09;;;;;;;7.25;1.92;;;;;;;9.85;54.02;99545.00;4882329;29;20033;-92
2023/01/06 03:03:35;;;;;;;3.95;1.88;;;;;;;9.84;54.43;99557.63;4852552;29;20037;-92
2023/01/06 03:06:06;;;;;;;4.95;2.17;;;;;;;9.93;54.00;99560.66;4882116;29;20025;-93
2023/01/06 03:08:32;;;;;;;5.88;1.77;;;;;;;9.94;53.98;99575.72;4867699;29;20092;-93
2023/01/06 03:10:58;;;;;;;4.18;1.90;;;;;;;9.97;53.98;99569.00;4866761;29;20476;-94
2023/01/06 03:13:40;;;;;;;4.72;2.05;;;;;;;9.85;54.13;99570.00;4867092;29;20032;-92
2023/01/06 03:16:06;;;;;;;3.40;1.92;;;;;;;9.81;54.33;99560.81;4870509;29;20071;-92
2023/01/06 03:18:31;;;;;;;3.33;1.95;;;;;;;9.79;54.24;99562.97;4868900;29;20127;-93
2023/01/06 03:20:59;;;;;;;6.82;2.03;;;;;;;9.92;54.02;99575.19;4869501;29;20039;-91
2023/01/06 03:23:24;;;;;;;3.35;1.92;;;;;;;9.80;54.28;99566.50;4869584;29;20036;-92
2023/01/06 03:25:53;;;;;;;3.88;2.00;;;;;;;9.80;53.93;99563.81;4882194;29;20029;-91
2023/01/06 03:28:18;;;;;;;3.70;1.90;;;;;;;9.66;53.97;99547.28;4885135;29;20092;-92
2023/01/06 03:31:06;;;;;;;2.53;1.77;;;;;;;9.71;54.06;99572.34;4885843;29;20071;-92
2023/01/06 03:33:45;;;;;;;3.05;1.60;;;;;;;9.61;54.18;99550.75;4888043;29;20024;-93
2023/01/06 03:36:22;;;;;;;3.97;2.17;;;;;;;9.81;54.37;99576.16;4887130;29;20024;-94
2023/01/06 03:38:55;;;;;;;3.83;1.70;;;;;;;9.64;53.82;99566.34;4917691;29;20039;-93
2023/01/06 03:44:40;;;;;;;3.38;1.80;;;;;;;9.55;54.44;99545.59;4903089;29;20514;-93
2023/01/06 03:47:36;;;;;;;2.47;1.48;;;;;;;9.56;54.66;99557.97;4866381;29;20093;-92
2023/01/06 03:50:11;;;;;;;3.40;1.52;;;;;;;9.38;54.85;99553.78;4862674;29;20416;-93
2023/01/06 03:52:41;;;;;;;2.70;1.63;;;;;;;9.45;55.18;99563.25;4868042;29;20024;-92
2023/01/06 03:55:28;;;;;;;2.85;1.73;;;;;;;9.48;55.11;99573.50;4881262;29;20440;-93
2023/01/06 03:57:55;;;;;;;3.40;1.80;;;;;;;9.55;54.79;99575.97;4866391;29;20119;-93
2023/01/06 04:00:28;;;;;;;3.97;1.70;;;;;;;9.35;55.20;99560.47;4866421;29;20124;-93
2023/01/06 04:02:53;;;;;;;3.22;1.60;;;;;;;9.40;54.82;99557.84;4866714;29;20020;-93
2023/01/06 04:05:21;;;;;;;5.22;1.88;;;;;;;9.52;54.58;99576.47;4866398;29;20123;-93
2023/01/06 04:07:47;;;;;;;4.05;1.83;;;;;;;9.48;55.10;99560.06;4866853;29;20056;-93
2023/01/06 04:10:13;;;;;;;2.60;1.60;;;;;;;9.54;54.86;99573.53;4866449;29;20115;-94
2023/01/06 04:12:39;;;;;;;3.17;1.65;;;;;;;9.55;55.00;99570.59;4877060;29;20051;-93
2023/01/06 04:15:06;;;;;;;3.38;1.80;;;;;;;9.41;55.32;99566.72;4866122;29;20040;-92
2023/01/06 04:17:32;;;;;;;5.40;2.00;;;;;;;9.36;55.34;99572.88;4866048;29;20028;-92
2023/01/06 04:19:57;;;;;;;2.97;1.80;;;;;;;9.36;55.51;99575.56;4865635;29;20527;-93
2023/01/06 04:22:23;;;;;;;4.22;1.80;;;;;;;9.47;55.23;99600.63;4865748;29;20021;-93
2023/01/06 04:24:49;;;;;;;4.50;1.85;;;;;;;9.41;55.97;99593.59;4865744;29;20029;-94
2023/01/06 04:27:17;;;;;;;3.30;1.85;;;;;;;9.35;55.80;99579.28;4867944;29;20143;-95
2023/01/06 04:29:43;;;;;;;3.90;1.90;;;;;;;9.33;55.67;99584.09;4869748;29;20124;-95
2023/01/06 04:32:09;;;;;;;4.32;1.90;;;;;;;9.50;56.13;99613.56;4884596;29;20468;-95
2023/01/06 04:34:34;;;;;;;3.28;1.75;;;;;;;9.31;55.86;99580.88;4870577;29;20241;-95
2023/01/06 04:37:02;;;;;;;3.65;2.00;;;;;;;9.28;56.79;99601.00;4869824;29;20395;-94
2023/01/06 04:39:28;;;;;;;3.20;1.80;;;;;;;9.19;56.50;99590.97;4870067;29;20020;-95
2023/01/06 04:48:38;;;;;;;3.73;2.07;;;;;;;9.26;56.55;99616.56;4876920;29;20097;-96
2023/01/06 04:51:08;;;;;;;5.53;1.90;;;;;;;9.19;56.21;99604.38;4850653;29;20484;-94
2023/01/06 04:53:37;;;;;;;4.68;2.00;;;;;;;9.22;56.49;99611.97;4850893;29;20035;-95
2023/01/06 04:56:10;;;;;;;10.30;2.40;;;;;;;9.08;57.40;99606.16;4851309;29;20116;-93
2023/01/06 04:58:35;;;;;;;4.85;2.60;;;;;;;9.06;57.31;99614.47;4851578;29;20048;-94
2023/01/06 05:01:02;;;;;;;4.10;1.90;;;;;;;9.23;56.90;99627.81;4835706;29;20104;-95
2023/01/06 05:03:27;;;;;;;3.20;1.98;;;;;;;9.14;57.07;99607.03;4836612;29;20033;-94
2023/01/06 05:05:53;;;;;;;4.05;2.20;;;;;;;9.23;56.81;99630.50;4836355;29;20032;-94
2023/01/06 05:08:18;;;;;;;5.35;2.20;;;;;;;9.28;56.56;99619.00;4835495;29;20029;-94
2023/01/06 05:10:44;;;;;;;3.80;2.10;;;;;;;9.21;57.13;99626.44;4835080;29;20033;-94
2023/01/06 05:13:09;;;;;;;9.57;2.65;;;;;;;9.19;57.02;99615.13;4835297;29;20028;-94
2023/01/06 05:15:35;;;;;;;5.00;2.40;;;;;;;9.31;56.85;99624.66;4836668;29;20032;-94
2023/01/06 05:18:01;;;;;;;4.60;2.40;;;;;;;9.40;56.42;99627.72;4836325;29;20032;-94
2023/01/06 05:20:26;;;;;;;4.43;2.30;;;;;;;9.50;56.65;99646.63;4865484;29;20050;-91
2023/01/06 05:22:52;;;;;;;6.30;3.72;;;;;;;9.31;57.08;99623.84;4851231;29;20081;-94
2023/01/06 05:25:17;;;;;;;4.18;2.10;;;;;;;9.44;56.49;99630.69;4850639;29;20025;-94
2023/01/06 05:27:43;;;;;;;6.35;2.50;;;;;;;9.33;56.87;99637.06;4851090;29;20137;-93
2023/01/06 05:30:09;;;;;;;8.88;3.13;;;;;;;9.35;56.69;99624.16;4850350;29;20100;-94
2023/01/06 05:32:38;;;;;;;5.80;2.63;;;;;;;9.29;56.82;99626.78;4852130;29;20032;-93
2023/01/06 05:35:03;;;;;;;9.48;2.83;;;;;;;9.44;56.33;99634.22;4851158;29;20025;-94
2023/01/06 05:37:35;;;;;;;3.90;2.35;;;;;;;9.40;56.51;99640.31;4849907;29;20036;-93
2023/01/06 05:40:00;;;;;;;9.45;2.80;;;;;;;9.35;56.42;99622.28;4852744;29;20033;-92
2023/01/06 05:42:26;;;;;;;7.53;2.65;;;;;;;9.33;56.75;99624.41;4865963;29;20036;-93
2023/01/06 05:44:58;;;;;;;9.95;3.35;;;;;;;9.40;56.74;99648.38;4866315;29;20036;-96
2023/01/06 05:47:49;;;;;;;7.47;3.58;;;;;;;9.48;56.13;99643.41;4837463;29;20021;-96
2023/01/06 05:50:15;;;;;;;9.07;2.53;;;;;;;9.42;56.36;99652.47;4866022;29;20048;-93
2023/01/06 05:52:40;;;;;;;4.78;2.70;;;;;;;9.50;55.83;99660.06;4835141;29;20056;-92
2023/01/06 05:55:09;;;;;;;17.42;7.32;;;;;;;9.56;55.73;99657.44;4850776;29;20032;-93
2023/01/06 05:57:37;;;;;;;11.40;5.30;;;;;;;9.62;55.75;99659.09;4837461;29;20029;-96
2023/01/06 06:00:04;;;;;;;6.47;3.78;;;;;;;9.66;55.56;99657.53;4850149;29;20036;-91
2023/01/06 06:02:30;;;;;;;5.03;2.80;;;;;;;9.60;55.39;99650.47;4848232;29;20027;-93
2023/01/06 06:04:58;;;;;;;8.98;2.90;;;;;;;9.80;55.55;99663.31;4848979;29;20045;-93
2023/01/06 06:07:24;;;;;;;5.30;2.95;;;;;;;9.65;55.69;99658.56;4850269;29;20029;-94
2023/01/06 06:09:49;;;;;;;5.30;2.88;;;;;;;9.81;55.71;99703.34;4866014;29;20025;-93
2023/01/06 06:12:15;;;;;;;9.95;2.97;;;;;;;9.67;55.92;99676.09;4833194;29;20382;-91
2023/01/06 06:14:42;;;;;;;4.47;2.75;;;;;;;9.66;55.61;99674.47;4833672;29;20560;-91
2023/01/06 06:17:10;;;;;;;4.60;3.10;;;;;;;9.81;55.61;99702.56;4881055;29;20483;-90
2023/01/06 06:19:36;;;;;;;4.75;2.75;;;;;;;9.91;55.04;99698.06;4882205;29;20033;-93
2023/01/06 06:22:01;;;;;;;4.63;2.33;;;;;;;9.91;54.57;99695.38;4848854;29;20552;-92
2023/01/06 06:24:27;;;;;;;6.40;2.75;;;;;;;9.99;54.23;99696.00;4848900;29;20106;-90
2023/01/06 06:26:52;;;;;;;4.72;2.65;;;;;;;10.01;54.29;99704.63;4849011;29;20056;-91
2023/01/06 06:29:17;;;;;;;3.58;2.40;;;;;;;10.07;54.22;99717.84;4848912;29;20021;-91
2023/01/06 06:31:43;;;;;;;4.45;2.78;;;;;;;10.02;54.19;99708.91;4849564;29;20025;-93
2023/01/06 06:34:15;;;;;;;6.18;2.72;;;;;;;9.99;53.77;99691.41;4849181;29;20051;-93
2023/01/06 06:36:40;;;;;;;5.47;2.50;;;;;;;10.03;53.90;99699.78;4850871;29;20041;-94
2023/01/06 06:39:06;;;;;;;4.25;2.53;;;;;;;10.18;53.59;99718.75;4835633;29;20045;-92
2023/01/06 06:41:31;;;;;;;4.32;2.20;;;;;;;10.17;53.42;99701.00;4834994;29;20101;-92
2023/01/06 06:43:57;;;;;;;5.53;2.28;;;;;;;10.22;52.74;99710.97;4850673;29;20468;-92
2023/01/06 06:46:22;;;;;;;4.05;2.38;;;;;;;10.27;53.58;99711.84;4882416;29;20035;-93
2023/01/06 06:48:49;;;;;;;5.05;2.78;;;;;;;10.29;53.45;99715.09;4864310;29;20033;-94
2023/01/06 06:51:20;;;;;;;4.30;2.42;;;;;;;10.24;52.71;99698.06;4859128;29;20040;-93
2023/01/06 06:53:46;;;;;;;;;;;;;;;10.44;52.76;99727.06;4854054;29;20171;-92
2023/01/06 06:56:12;;;;;;;4.63;2.60;;;;;;;10.40;51.96;99718.69;4868609;29;19923;-93
2023/01/06 06:58:37;;;;;;;4.70;2.95;;;;;;;10.47;52.11;99723.81;4869959;29;20028;-91
2023/01/06 07:01:20;;;;;;;6.05;2.70;;;;;;;10.41;52.47;99719.47;4887690;29;20029;-94
2023/01/06 07:03:46;;;;;;;5.20;2.42;;;;;;;10.37;52.14;99713.78;4884023;29;20028;-92
2023/01/06 07:06:13;;;;;;;4.47;2.17;;;;;;;10.54;51.91;99739.75;4884507;29;20436;-91
2023/01/06 07:08:42;;;;;;;3.67;2.58;;;;;;;10.65;51.17;99728.00;4868341;29;20028;-92
2023/01/06 07:11:08;;;;;;;3.15;1.98;;;;;;;10.68;50.86;99746.31;4885779;29;20029;-91
2023/01/06 07:13:33;;;;;;;4.45;2.53;;;;;;;10.78;50.88;99756.34;4869482;29;20503;-91
2023/01/06 07:16:09;;;;;;;3.33;1.70;;;;;;;10.70;49.89;99731.50;4883651;29;20059;-94
2023/01/06 07:22:29;;;;;;;5.30;2.25;;;;;;;10.90;50.06;99773.13;4912864;29;20044;-90
2023/01/06 07:25:48;;;;;;;4.13;2.10;;;;;;;11.05;49.45;99781.28;4916551;29;20025;-93
2023/01/06 07:28:30;;;;;;;3.55;1.80;;;;;;;11.15;49.12;99790.50;4811928;29;20043;-95
2023/01/06 07:30:59;;;;;;;6.32;2.28;;;;;;;10.99;49.17;99765.34;4855638;29;20052;-94
2023/01/06 07:33:25;;;;;;;5.93;1.92;;;;;;;10.98;49.08;99778.03;4802591;29;20026;-94
2023/01/06 07:35:52;;;;;;;4.22;2.20;;;;;;;11.00;49.34;99786.66;4801108;29;20451;-93
2023/01/06 07:38:20;;;;;;;4.75;2.10;;;;;;;11.10;48.99;99802.88;4801266;29;20050;-94
2023/01/06 07:40:48;;;;;;;3.38;1.80;;;;;;;11.09;48.28;99790.47;4813169;29;20042;-94
2023/01/06 07:43:24;;;;;;;1.80;1.50;;;;;;;11.25;47.96;99817.50;4804058;29;20030;-94
2023/01/06 07:45:51;;;;;;;3.67;2.15;;;;;;;11.20;48.27;99804.00;4779486;29;20026;-93
2023/01/06 07:48:17;;;;;;;3.33;1.80;;;;;;;11.36;47.95;99815.69;4779276;29;20506;-93
2023/01/06 07:50:43;;;;;;;5.55;2.20;;;;;;;11.43;47.56;99821.63;4795660;29;20046;-92
2023/01/06 07:53:12;;;;;;;3.30;1.80;;;;;;;11.42;47.22;99820.81;4799385;29;21367;-94
2023/01/06 07:55:37;;;;;;;3.08;2.00;;;;;;;11.37;47.55;99812.72;4797954;29;20029;-95
2023/01/06 07:58:07;;;;;;;3.83;1.70;;;;;;;11.51;47.09;99821.94;4802502;29;20040;-93
2023/01/06 08:00:35;;;;;;;4.60;2.00;;;;;;;11.56;47.13;99814.94;4850145;29;20098;-92
2023/01/06 08:03:10;;;;;;;4.13;2.08;;;;;;;11.47;47.90;99822.72;4849897;29;20017;-94
2023/01/06 08:05:41;;;;;;;5.65;2.15;;;;;;;11.49;47.27;99815.97;4870350;29;20037;-93
2023/01/06 08:08:10;;;;;;;4.72;2.78;;;;;;;11.56;47.06;99820.31;4867909;29;20028;-92
2023/01/06 08:10:41;;;;;;;4.78;1.90;;;;;;;11.47;46.80;99804.66;4871566;29;20032;-93
2023/01/06 08:13:10;;;;;;;5.43;2.42;;;;;;;11.50;47.28;99814.94;4859136;29;20024;-95
2023/01/06 08:15:47;;;;;;;4.03;2.45;;;;;;;11.55;46.89;99824.13;4860874;29;20583;-94
2023/01/06 08:18:12;;;;;;;4.90;2.22;;;;;;;11.46;46.89;99805.75;4866730;29;20129;-95
2023/01/06 08:20:38;;;;;;;6.13;2.20;;;;;;;11.52;46.87;99818.16;4861074;29;20056;-94
2023/01/06 08:23:04;;;;;;;4.32;1.95;;;;;;;11.71;46.88;99847.38;4872665;29;20080;-95
2023/01/06 08:25:29;;;;;;;3.33;1.70;;;;;;;11.65;46.83;99824.97;4873590;29;20044;-94
2023/01/06 08:27:57;;;;;;;4.35;1.73;;;;;;;11.78;46.42;99836.34;4872920;29;20039;-95
2023/01/06 08:30:23;;;;;;;4.00;1.90;;;;;;;11.91;46.15;99857.44;4873992;29;20028;-96
2023/01/06 08:32:51;;;;;;;3.25;1.65;;;;;;;11.80;46.48;99850.38;4858627;29;20037;-94
2023/01/06 08:35:23;;;;;;;4.32;1.95;;;;;;;11.79;46.35;99849.56;4857988;29;20040;-93
2023/01/06 08:37:51;;;;;;;4.05;2.28;;;;;;;11.92;46.54;99843.69;4891795;29;20092;-93
2023/01/06 08:40:18;;;;;;;6.35;2.20;;;;;;;12.00;46.19;99847.75;4870800;29;20032;-93
2023/01/06 08:43:06;;;;;;;4.72;1.90;;;;;;;12.21;45.90;99872.91;4882100;29;20559;-96
2023/01/06 08:45:42;;;;;;;2.95;1.52;;;;;;;12.16;45.68;99872.09;5008826;23;20024;-94
2023/01/06 08:48:11;;;;;;;3.72;1.83;;;;;;;12.13;45.92;99866.13;4906231;29;20472;-95
2023/01/06 08:50:38;;;;;;;3.25;1.67;;;;;;;12.19;45.76;99871.56;4873101;29;20048;-94
2023/01/06 08:53:08;;;;;;;4.43;2.10;;;;;;;12.17;45.92;99863.72;4865222;29;20470;-96
2023/01/06 08:55:39;;;;;;;3.03;1.40;;;;;;;12.19;45.48;99863.47;4831312;29;20038;-94
2023/01/06 08:58:05;;;;;;;2.10;1.50;;;;;;;12.30;45.31;99867.78;4828423;29;20085;-93
2023/01/06 09:00:31;;;;;;;5.78;2.20;;;;;;;12.39;45.24;99871.59;4844100;29;20048;-96
2023/01/06 09:02:56;;;;;;;3.03;1.67;;;;;;;12.30;45.71;99873.19;4859536;29;20520;-93
2023/01/06 09:05:22;;;;;;;4.80;1.73;;;;;;;12.26;45.35;99842.41;4859096;29;20026;-94
2023/01/06 09:08:07;;;;;;;;;;;;;;;;;;;;;
2023/01/06 09:10:46;;;;;;;2.95;1.70;;;;;;;12.16;45.64;99823.50;4836667;29;20038;-95
2023/01/06 09:13:11;;;;;;;;;;;;;;;12.41;45.78;99847.00;4828823;29;20034;-94
2023/01/06 09:15:47;;;;;;;4.85;2.30;;;;;;;12.24;46.06;99836.47;4815474;29;19919;-93
2023/01/06 09:18:13;;;;;;;3.33;1.70;;;;;;;12.19;45.44;99831.06;4834171;29;20149;-96
2023/01/06 09:20:39;;;;;;;5.35;1.92;;;;;;;12.09;45.70;99829.97;4827807;29;20026;-96
2023/01/06 09:23:04;;;;;;;2.22;1.40;;;;;;;12.24;45.61;99861.59;4805652;29;20038;-94
2023/01/06 09:25:36;;;;;;;2.03;1.40;;;;;;;12.13;45.79;99843.75;4813955;29;20098;-94
2023/01/06 09:28:02;;;;;;;4.78;1.60;;;;;;;12.09;45.80;99853.44;4783736;29;20042;-93
2023/01/06 09:30:27;;;;;;;3.83;1.80;;;;;;;12.17;45.94;99835.94;4788106;29;20190;-95
2023/01/06 09:32:53;;;;;;;2.88;1.30;;;;;;;12.08;45.70;99820.25;4818917;29;20049;-93
2023/01/06 09:35:24;;;;;;;4.82;1.35;;;;;;;12.25;45.23;99835.41;4814504;29;20095;-95
2023/01/06 09:37:51;;;;;;;3.28;1.65;;;;;;;12.29;45.63;99844.59;4831653;29;20033;-96
2023/01/06 09:40:23;;;;;;;2.03;1.23;;;;;;;12.30;44.75;99836.19;4835279;29;20026;-95
2023/01/06 09:49:46;;;;;;;1.63;1.10;;;;;;;12.88;43.99;99867.56;4825117;29;20112;-94
2023/01/06 09:52:47;;;;;;;2.40;1.20;;;;;;;13.02;43.70;99868.63;4829867;29;20137;-92
2023/01/06 09:55:34;;;;;;;4.32;1.10;;;;;;;12.98;43.26;99851.34;4762647;29;20039;-92
2023/01/06 09:58:08;;;;;;;4.40;1.30;;;;;;;12.82;43.13;99857.84;4779430;29;20038;-94
2023/01/06 10:00:50;;;;;;;2.60;1.23;;;;;;;12.72;43.29;99855.94;4809691;29;20034;-93
2023/01/06 10:03:15;;;;;;;2.05;1.30;;;;;;;12.75;43.55;99860.81;4805204;29;20103;-92
2023/01/06 10:05:58;;;;;;;3.42;1.35;;;;;;;12.68;43.95;99858.38;4863465;29;20041;-95
2023/01/06 10:08:28;;;;;;;4.28;1.67;;;;;;;12.65;43.75;99848.09;4862323;29;20208;-93
2023/01/06 10:11:14;;;;;;;3.83;1.35;;;;;;;12.87;43.54;99868.66;4865753;29;20093;-95
2023/01/06 10:13:39;;;;;;;1.92;1.33;;;;;;;12.90;43.96;99857.28;4847418;29;20064;-93
2023/01/06 10:16:14;;;;;;;4.47;1.45;;;;;;;12.92;43.57;99860.53;4863026;29;20457;-93
2023/01/06 10:18:48;;;;;;;3.78;1.58;;;;;;;12.92;43.67;99847.00;4862415;29;20126;-92
2023/01/06 10:21:39;;;;;;;3.38;1.95;;;;;;;12.83;43.19;99854.88;4862822;29;20035;-91
2023/01/06 10:24:24;;;;;;;3.03;1.20;;;;;;;12.84;43.32;99842.97;4860699;29;20483;-92
2023/01/06 10:26:55;;;;;;;3.85;1.55;;;;;;;12.80;43.53;99820.25;4845883;29;20090;-95
2023/01/06 10:29:21;;;;;;;4.75;1.63;;;;;;;12.86;43.23;99837.28;4846513;29;20029;-92
2023/01/06 10:32:14;;;;;;;5.30;1.40;;;;;;;12.82;43.17;99810.00;4866798;29;20029;-96
2023/01/06 10:35:19;;;;;;;;;;;;;;;;;;;;;
2023/01/06 10:37:52;;;;;;;2.58;1.40;;;;;;;13.07;43.18;99833.50;4851331;29;20606;-96
2023/01/06 10:40:24;;;;;;;2.85;1.20;;;;;;;13.31;42.71;99852.66;4837166;29;20101;-96
2023/01/06 10:43:14;;;;;;;6.40;1.38;;;;;;;13.28;42.05;99839.66;4867458;29;20033;-96
2023/01/06 10:45:42;;;;;;;7.30;3.65;;;;;;;13.22;42.31;99838.06;4833742;29;20034;-94
2023/01/06 10:48:27;;;;;;;2.53;1.45;;;;;;;13.26;42.31;99832.88;4846089;29;20057;-94
2023/01/06 10:50:56;;;;;;;7.03;1.95;;;;;;;13.10;42.30;99803.19;4858638;29;20033;-94
2023/01/06 10:53:25;;;;;;;7.47;1.95;;;;;;;13.18;42.67;99820.75;4856667;29;20057;-92
2023/01/06 10:55:57;;;;;;;3.75;1.50;;;;;;;13.14;42.33;99820.47;4841748;29;20037;-92
2023/01/06 10:58:22;;;;;;;2.85;1.80;;;;;;;13.28;42.55;99834.25;4830758;29;20035;-93
2023/01/06 11:01:31;;;;;;;5.45;2.30;;;;;;;13.33;41.68;99838.84;4865085;29;20476;-96
2023/01/06 11:10:04;;;;;;;;;;;;;;;;;;;;;
2023/01/06 11:21:05;;;;;;;2.60;1.25;;;;;;;13.21;41.37;99792.34;1677981;23;20323;-89
2023/01/06 11:23:30;;;;;;;4.63;1.50;;;;;;;13.22;41.38;99793.94;4915324;29;20048;-96
2023/01/06 11:26:28;;;;;;;7.35;4.10;;;;;;;13.22;41.78;99797.50;4954988;24;20059;-93
2023/01/06 11:28:54;;;;;;;4.10;1.88;;;;;;;13.10;41.52;99788.88;4897802;29;20044;-94
2023/01/06 11:31:24;;;;;;;3.85;2.20;;;;;;;13.00;41.83;99770.78;4883116;29;20139;-94
2023/01/06 11:33:54;;;;;;;6.30;2.07;;;;;;;13.13;41.70;99785.59;4878611;29;20031;-95
2023/01/06 11:36:24;;;;;;;2.25;1.42;;;;;;;13.13;41.55;99775.59;4909141;29;20032;-96
2023/01/06 11:39:01;;;;;;;5.68;2.90;;;;;;;13.17;41.51;99753.44;4886386;29;20032;-92
2023/01/06 11:41:31;;;;;;;10.65;4.32;;;;;;;13.21;41.65;99768.00;4889250;29;20024;-91
2023/01/06 11:44:23;;;;;;;7.53;3.08;;;;;;;13.20;41.42;99769.06;4884467;29;20036;-91
2023/01/06 11:46:50;;;;;;;5.53;2.40;;;;;;;13.12;41.39;99765.88;4890676;29;20048;-92
2023/01/06 11:49:44;;;;;;;5.50;2.22;;;;;;;13.39;41.30;99790.97;4887024;29;20696;-92
2023/01/06 11:52:30;;;;;;;2.55;1.50;;;;;;;13.36;41.37;99791.50;4887838;29;20043;-96
2023/01/06 11:55:03;;;;;;;11.02;4.65;;;;;;;13.25;41.67;99774.47;4906145;29;20036;-93
2023/01/06 11:57:49;;;;;;;4.47;2.38;;;;;;;13.44;41.54;99788.22;4898917;29;20024;-94
2023/01/06 12:00:18;;;;;;;2.83;1.35;;;;;;;13.37;41.51;99787.72;4921473;29;20066;-93
2023/01/06 12:03:21;;;;;;;3.17;1.42;;;;;;;13.45;41.19;99796.06;4916535;29;20499;-94
2023/01/06 12:06:29;;;;;;;2.45;1.42;;;;;;;13.19;41.31;99776.38;4907124;29;20035;-95
2023/01/06 12:09:09;;;;;;;1.70;1.20;;;;;;;13.16;41.62;99793.19;4873590;29;20044;-93
2023/01/06 12:11:44;;;;;;;4.28;2.00;;;;;;;13.13;41.73;99774.78;4878173;29;20036;-95
2023/01/06 12:14:17;;;;;;;2.60;1.30;;;;;;;13.13;41.73;99777.50;4914178;29;20032;-95
2023/01/06 12:16:58;;;;;;;1.73;1.17;;;;;;;13.14;41.73;99798.06;4896197;29;20036;-94
2023/01/06 12:19:36;;;;;;;2.53;1.50;;;;;;;12.89;41.87;99761.88;4888028;29;20039;-93
2023/01/06 12:22:02;;;;;;;2.92;1.45;;;;;;;12.92;42.22;99779.44;4855904;29;20044;-93
2023/01/06 12:24:32;;;;;;;3.20;1.83;;;;;;;12.97;41.60;99790.25;4881026;29;20036;-92
2023/01/06 12:27:01;;;;;;;4.93;2.60;;;;;;;12.87;41.61;99776.78;4890912;29;20040;-93
2023/01/06 12:29:26;;;;;;;2.25;1.33;;;;;;;12.74;41.96;99789.75;4889093;29;20044;-92
2023/01/06 12:32:12;;;;;;;2.40;1.40;;;;;;;12.73;42.42;99781.91;4876312;29;20111;-95
2023/01/06 12:34:49;;;;;;;5.22;1.50;;;;;;;12.76;42.01;99775.16;4876136;29;20090;-95